Terminal Aerodrome Forecast
Issued by NWS Lake Charles, LA

Home | Current Version | Previous Version | Text Only | Print | Product List | Glossary On
Versions: 1 2 3 4 5 6 7 8 9 10 11 12 13 14 15 16 17 18
000
FTUS44 KLCH 282005 AAA
TAFARA
TAF AMD
KARA 282005Z 2820/2918 17018G27KT P6SM OVC018
      TEMPO 2820/2824 SCT018 OVC025
     FM290300 17013G19KT P6SM OVC015
      TEMPO 2909/2913 BKN009 OVC015
     FM291400 16020G30KT P6SM OVC018=

USA.gov is the U.S. government's official web portal to all federal, state and local government web resources and services.